Wichita, KS (67209)

10:50 PM CDT on August 28, 2016 (GMT -0500)
Near the airport | | Change Station

Elev 1348 ft 37.65 °N, 97.44 °W | Updated 11 seconds ago

Mostly Cloudy
Mostly Cloudy
74.5 °F
Feels Like 74 °F
N
4.0
Wind Variable Wind from South
Gusts 5.0 mph

Today
High -- | Low -- °F
--% Chance of Precip.
Yesterday
High -- | Low -- °F
Precip. -- in
Pressure 30.04 in
Visibility 10.0 miles
Clouds Few 12000 ft
Scattered Clouds 18000 ft
Mostly Cloudy 25000 ft
Heat Index 74 °F
Dew Point 69 °F
Humidity 83%
Rainfall 0.00 in
Snow Depth Not available.
6:56 AM 8:03 PM
Waning Crescent, 11% visible
METAR KICT 290253Z 12006KT 10SM FEW120 SCT180 BKN250 24/20 A3008 RMK AO2 SLP172 T02440200 51008
Pressure 30.04 in
Visibility 10.0 miles
Clouds Few 12000 ft
Scattered Clouds 18000 ft
Mostly Cloudy 25000 ft
Heat Index 74 °F
Dew Point 69 °F
Humidity 83%
Rainfall 0.00 in
Snow Depth Not available.
6:56 AM 8:03 PM
Waning Crescent, 11% visible
METAR KICT 290253Z 12006KT 10SM FEW120 SCT180 BKN250 24/20 A3008 RMK AO2 SLP172 T02440200 51008

10-Day Weather Forecast

Almanac

Astronomy

Aug. 28, 2016 Rise Set
Actual Time
Civil Twilight
Nautical Twilight
Astronomical Twilight
Moon
Length of Visible Light
Length of Day
Tomorrow will be .
, % of the Moon is Illuminated

Today's Extremes

State Highs State Lows

Community

WunderPhotos

Upload Photos

1,935,783 photos uploaded!

WunderBlog® & News

Nearby

Air Quality

  Air Quality AQ Index Pollutant
Not available.

Snow Depth

Station Depth Elevation

Earthquake Activity

City Distance Mag. Time & Date
Minimum magnitude displayed is 2.5.

Coastal Water Temperatures

Place Temperature

Stations

Nearby Weather Stations

Station Location Temp. Windchill Dew Point Humidity Wind Precip. Elev Updated Type
                   

Watches & Warnings

There are currently no watches in effect.